TimePDT,TemperatureF,Dew PointF,Humidity,Sea Level PressureIn,VisibilityMPH,Wind Direction,Wind SpeedMPH,Gust SpeedMPH,PrecipitationIn,Events,Conditions,WindDirDegrees,DateUTC
12:53 AM,42.1,41.0,96,30.00,10.0,SE,5.8,-,N/A,,Clear,140,2013-05-08 07:53:00
1:53 AM,42.1,42.1,100,30.00,10.0,Calm,Calm,-,N/A,,Clear,0,2013-05-08 08:53:00
2:53 AM,42.1,39.9,92,30.00,8.0,Calm,Calm,-,N/A,,Clear,0,2013-05-08 09:53:00
3:31 AM,39.0,37.9,96,30.02,1.8,NNW,3.5,-,N/A,,Overcast,340,2013-05-08 10:31:00
3:44 AM,39.9,39.9,100,30.02,4.0,North,3.5,-,N/A,,Overcast,10,2013-05-08 10:44:00
3:53 AM,39.9,39.0,97,30.01,8.0,Calm,Calm,-,N/A,,Overcast,0,2013-05-08 10:53:00
4:00 AM,37.9,37.0,97,30.03,0.5,East,6.9,-,N/A,Fog,Fog,80,2013-05-08 11:00:00
4:07 AM,37.0,37.0,100,30.03,0.2,East,6.9,-,N/A,Fog,Fog,90,2013-05-08 11:07:00
4:16 AM,36.0,36.0,100,30.03,0.5,ESE,4.6,-,N/A,Fog,Fog,120,2013-05-08 11:16:00
4:28 AM,36.0,36.0,100,30.03,0.2,East,4.6,-,N/A,Fog,Fog,100,2013-05-08 11:28:00
4:35 AM,37.0,37.0,100,30.03,0.2,East,5.8,-,N/A,Fog,Fog,90,2013-05-08 11:35:00
4:53 AM,35.1,35.1,100,30.04,0.8,East,4.6,-,N/A,,Mist,80,2013-05-08 11:53:00
5:09 AM,34.0,34.0,100,30.04,0.2,Variable,4.6,-,N/A,Fog,Fog,0,2013-05-08 12:09:00
5:53 AM,35.1,35.1,100,30.05,0.2,Calm,Calm,-,N/A,Fog,Fog,0,2013-05-08 12:53:00
6:24 AM,37.0,37.0,100,30.06,1.0,WNW,4.6,-,N/A,,Mist,300,2013-05-08 13:24:00
6:28 AM,37.0,37.0,100,30.06,2.5,NW,4.6,-,N/A,,Partly Cloudy,310,2013-05-08 13:28:00
6:35 AM,39.0,39.0,100,30.06,6.0,NW,3.5,-,N/A,,Partly Cloudy,310,2013-05-08 13:35:00
6:53 AM,39.0,39.0,100,30.06,7.0,ESE,3.5,-,N/A,,Clear,110,2013-05-08 13:53:00
7:53 AM,45.0,45.0,100,30.07,9.0,Calm,Calm,-,N/A,,Clear,0,2013-05-08 14:53:00
8:53 AM,53.1,48.0,83,30.06,10.0,Calm,Calm,-,N/A,,Clear,0,2013-05-08 15:53:00
9:53 AM,55.9,46.9,72,30.06,10.0,Calm,Calm,-,N/A,,Clear,0,2013-05-08 16:53:00
10:53 AM,60.1,45.0,57,30.06,10.0,Variable,3.5,-,N/A,,Clear,0,2013-05-08 17:53:00
11:53 AM,64.0,44.1,48,30.04,10.0,Variable,3.5,-,N/A,,Scattered Clouds,0,2013-05-08 18:53:00
12:53 PM,66.9,39.9,37,30.02,10.0,North,-9999.0,-,N/A,,Scattered Clouds,0,2013-05-08 19:53:00
1:53 PM,69.1,39.0,33,30.00,10.0,NE,9.2,-,N/A,,Mostly Cloudy,50,2013-05-08 20:53:00
2:53 PM,70.0,39.9,33,29.99,10.0,ENE,8.1,-,N/A,,Partly Cloudy,70,2013-05-08 21:53:00
3:53 PM,61.0,42.1,50,30.03,5.0,East,15.0,35.7,0.00,Rain,Light Rain,80,2013-05-08 22:53:00
4:04 PM,57.9,48.0,70,30.04,2.5,South,6.9,-,0.02,Rain,Rain,170,2013-05-08 23:04:00
4:12 PM,61.0,43.0,52,30.04,7.0,SSE,9.2,-,0.02,Rain,Light Rain,150,2013-05-08 23:12:00
4:53 PM,66.0,39.9,38,30.00,10.0,SW,5.8,-,0.02,,Clear,230,2013-05-08 23:53:00
5:53 PM,66.9,36.0,32,30.00,10.0,NNW,3.5,-,N/A,,Clear,340,2013-05-09 00:53:00
6:53 PM,68.0,35.1,30,29.97,10.0,NE,4.6,-,N/A,,Clear,40,2013-05-09 01:53:00
7:53 PM,60.1,46.9,62,29.99,10.0,East,4.6,-,N/A,,Clear,90,2013-05-09 02:53:00
8:53 PM,57.0,44.1,62,30.00,10.0,Calm,Calm,-,N/A,,Clear,0,2013-05-09 03:53:00
9:53 PM,57.9,42.1,56,30.01,10.0,Variable,3.5,-,N/A,,Clear,0,2013-05-09 04:53:00
10:53 PM,52.0,42.1,69,30.03,10.0,East,6.9,-,N/A,,Clear,80,2013-05-09 05:53:00
11:53 PM,55.0,43.0,64,30.03,10.0,NNE,5.8,-,N/A,,Clear,20,2013-05-09 06:53:00